createdAt,value
2022-10-28T00:00:57.523Z,14.00
2022-10-28T00:03:25.887Z,14.40
2022-10-28T00:05:54.988Z,14.77
2022-10-28T00:08:23.508Z,14.53
2022-10-28T00:10:52.663Z,13.67
2022-10-28T00:13:21.023Z,14.60
2022-10-28T00:15:50.768Z,14.03
2022-10-28T00:18:19.140Z,13.50
2022-10-28T00:20:47.487Z,13.47
2022-10-28T00:23:15.856Z,14.17
2022-10-28T00:25:44.197Z,14.03
2022-10-28T00:28:12.557Z,14.73
2022-10-28T00:30:40.885Z,14.80
2022-10-28T00:33:10.642Z,13.63
2022-10-28T00:35:39.029Z,14.93
2022-10-28T00:38:07.378Z,14.50
2022-10-28T00:40:36.162Z,13.77
2022-10-28T00:43:04.538Z,13.33
2022-10-28T00:45:32.873Z,14.13
2022-10-28T00:48:02.745Z,13.00
2022-10-28T00:50:39.309Z,13.43
2022-10-28T00:53:11.710Z,13.87
2022-10-28T00:55:40.172Z,14.43
2022-10-28T00:58:09.509Z,14.00
2022-10-28T01:00:37.919Z,14.73
2022-10-28T01:03:06.359Z,15.23
2022-10-28T01:05:38.805Z,14.63
2022-10-28T01:08:07.627Z,14.50
2022-10-28T01:10:41.526Z,14.43
2022-10-28T01:13:13.119Z,14.77
2022-10-28T01:15:45.062Z,16.23
2022-10-28T01:18:19.158Z,14.83
2022-10-28T01:21:06.185Z,14.13
2022-10-28T01:23:38.083Z,15.47
2022-10-28T01:26:25.661Z,15.23
2022-10-28T01:29:03.751Z,15.87
2022-10-28T01:31:38.088Z,14.63
2022-10-28T01:34:11.053Z,13.93
2022-10-28T01:36:42.316Z,15.00
2022-10-28T01:39:15.965Z,14.53
2022-10-28T01:41:49.115Z,14.87
2022-10-28T01:44:21.852Z,14.67
2022-10-28T01:46:53.577Z,14.03
2022-10-28T01:49:24.828Z,13.90
2022-10-28T01:51:55.586Z,14.17
2022-10-28T01:54:25.796Z,13.20
2022-10-28T01:56:55.260Z,14.70
2022-10-28T01:59:24.983Z,12.30
2022-10-28T02:01:55.573Z,13.53
2022-10-28T02:04:24.052Z,13.20
2022-10-28T02:06:53.868Z,12.73
2022-10-28T02:09:28.067Z,13.67
2022-10-28T02:12:05.902Z,13.37
2022-10-28T02:14:46.776Z,12.40
2022-10-28T02:17:21.559Z,13.70
2022-10-28T02:19:53.277Z,13.43
2022-10-28T02:22:24.636Z,13.07
2022-10-28T02:24:57.110Z,13.33
2022-10-28T02:27:31.176Z,13.47
2022-10-28T02:30:02.332Z,12.80
2022-10-28T02:32:33.922Z,13.97
2022-10-28T02:35:03.981Z,13.63
2022-10-28T02:37:34.744Z,12.40
2022-10-28T02:40:05.750Z,13.43
2022-10-28T02:42:37.163Z,12.50
2022-10-28T02:45:08.042Z,13.93
2022-10-28T02:47:40.802Z,12.00
2022-10-28T02:50:11.399Z,13.30
2022-10-28T02:52:41.972Z,13.63
2022-10-28T02:55:10.587Z,13.70
2022-10-28T02:57:40.481Z,12.83
2022-10-28T03:00:10.317Z,12.17
2022-10-28T03:02:40.055Z,13.73
2022-10-28T03:05:08.756Z,13.07
2022-10-28T03:07:37.137Z,12.77
2022-10-28T03:10:05.606Z,13.47
2022-10-28T03:12:33.972Z,12.80
2022-10-28T03:15:03.068Z,12.47
2022-10-28T03:17:31.495Z,12.83
2022-10-28T03:20:01.286Z,11.67
2022-10-28T03:22:29.636Z,11.70
2022-10-28T03:24:58.179Z,12.60
2022-10-28T03:27:26.551Z,11.70
2022-10-28T03:29:54.911Z,11.47
2022-10-28T03:32:23.302Z,11.40
2022-10-28T03:34:51.663Z,11.03
2022-10-28T03:37:21.392Z,11.50
2022-10-28T03:39:49.774Z,11.97
2022-10-28T03:42:18.136Z,11.20
2022-10-28T03:44:46.479Z,11.63
2022-10-28T03:47:15.493Z,11.07
2022-10-28T03:49:43.809Z,11.70
2022-10-28T03:52:12.224Z,11.50
2022-10-28T03:54:41.987Z,11.47
2022-10-28T03:57:10.344Z,10.83
2022-10-28T03:59:38.704Z,10.97
2022-10-28T04:02:07.234Z,11.43
2022-10-28T04:04:35.748Z,29.47
2022-10-28T04:07:04.117Z,41.93
2022-10-28T04:09:32.472Z,16.57
2022-10-28T04:12:02.214Z,11.23
2022-10-28T04:14:30.595Z,10.37
2022-10-28T04:16:58.935Z,11.43
2022-10-28T04:19:27.246Z,11.20
2022-10-28T04:21:55.640Z,10.73
2022-10-28T04:24:23.993Z,10.57
2022-10-28T04:26:52.322Z,10.57
2022-10-28T04:29:22.052Z,10.70
2022-10-28T04:31:52.226Z,10.60
2022-10-28T04:34:20.841Z,11.53
2022-10-28T04:36:49.261Z,10.83
2022-10-28T04:39:17.760Z,11.10
2022-10-28T04:41:46.169Z,11.40
2022-10-28T04:44:14.545Z,12.30
2022-10-28T04:46:44.339Z,12.43
2022-10-28T04:49:12.715Z,12.60
2022-10-28T04:51:41.105Z,12.73
2022-10-28T04:54:10.321Z,13.00
2022-10-28T04:56:38.684Z,11.23
2022-10-28T04:59:07.039Z,10.67
2022-10-28T05:01:35.556Z,10.57
2022-10-28T05:04:05.994Z,10.07
2022-10-28T05:06:34.352Z,10.53
2022-10-28T05:09:02.701Z,10.73
2022-10-28T05:11:31.155Z,9.63
2022-10-28T05:13:59.505Z,9.23
2022-10-28T05:16:27.887Z,9.37
2022-10-28T05:18:56.344Z,8.67
2022-10-28T05:21:26.102Z,12.17
2022-10-28T05:23:54.637Z,11.07
2022-10-28T05:26:23.020Z,12.87
2022-10-28T05:28:51.763Z,12.57
2022-10-28T05:31:20.365Z,12.17
2022-10-28T05:33:48.726Z,12.27
2022-10-28T05:36:17.114Z,12.47
2022-10-28T05:38:46.854Z,12.50
2022-10-28T05:41:15.250Z,12.40
2022-10-28T05:43:43.617Z,12.50
2022-10-28T05:46:12.082Z,12.27
2022-10-28T05:48:40.407Z,12.93
2022-10-28T05:51:08.745Z,13.50
2022-10-28T05:53:37.130Z,14.07
2022-10-28T05:56:07.037Z,14.37
2022-10-28T05:58:35.420Z,14.30
2022-10-28T06:01:03.829Z,14.73
2022-10-28T06:03:32.319Z,15.77
2022-10-28T06:06:00.829Z,15.07
2022-10-28T06:08:30.618Z,15.27
2022-10-28T06:10:57.504Z,15.63
2022-10-28T06:13:27.308Z,15.37
2022-10-28T06:15:56.491Z,15.73
2022-10-28T06:18:24.991Z,17.03
2022-10-28T06:20:54.457Z,15.73
2022-10-28T06:23:22.941Z,15.50
2022-10-28T06:25:51.642Z,16.23
2022-10-28T06:28:20.004Z,14.33
2022-10-28T06:30:49.761Z,14.40
2022-10-28T06:33:18.176Z,14.73
2022-10-28T06:35:46.604Z,14.40
2022-10-28T06:38:14.978Z,12.97
2022-10-28T06:40:43.356Z,13.37
2022-10-28T06:43:12.992Z,11.77
2022-10-28T06:45:41.371Z,12.20
2022-10-28T06:48:13.254Z,10.70
2022-10-28T06:50:41.618Z,12.07
2022-10-28T06:53:11.038Z,11.20
2022-10-28T06:55:39.395Z,10.00
2022-10-28T06:58:07.846Z,12.00
2022-10-28T07:00:36.559Z,10.17
2022-10-28T07:03:04.922Z,10.33
2022-10-28T07:05:34.786Z,10.47
2022-10-28T07:08:03.167Z,10.17
2022-10-28T07:10:31.539Z,10.17
2022-10-28T07:12:59.892Z,11.07
2022-10-28T07:15:28.245Z,11.47
2022-10-28T07:17:57.057Z,9.87
2022-10-28T07:20:26.234Z,10.23
2022-10-28T07:22:59.248Z,11.33
2022-10-28T07:25:27.771Z,9.67
2022-10-28T07:27:58.196Z,10.23
2022-10-28T07:30:26.667Z,10.90
2022-10-28T07:32:55.241Z,10.33
2022-10-28T07:35:23.902Z,10.03
2022-10-28T07:37:52.300Z,11.47
2022-10-28T07:40:22.063Z,10.33
2022-10-28T07:42:50.392Z,10.00
2022-10-28T07:45:18.978Z,11.13
2022-10-28T07:47:47.351Z,10.67
2022-10-28T07:50:15.853Z,10.23
2022-10-28T07:52:44.210Z,9.90
2022-10-28T07:55:13.056Z,11.17
2022-10-28T07:57:42.812Z,10.33
2022-10-28T08:00:11.965Z,10.90
2022-10-28T08:02:40.704Z,10.77
2022-10-28T08:05:09.377Z,11.33
2022-10-28T08:07:38.872Z,10.80
2022-10-28T08:10:08.302Z,11.33
2022-10-28T08:12:36.677Z,10.87
2022-10-28T08:15:09.456Z,11.40
2022-10-28T08:17:37.872Z,11.40
2022-10-28T08:20:06.655Z,10.63
2022-10-28T08:22:35.015Z,11.77
2022-10-28T08:25:03.552Z,11.37
2022-10-28T08:27:32.422Z,12.80
2022-10-28T08:30:00.743Z,13.13
2022-10-28T08:32:30.485Z,13.77
2022-10-28T08:34:58.828Z,12.23
2022-10-28T08:37:27.320Z,12.83
2022-10-28T08:39:55.759Z,13.13
2022-10-28T08:42:30.778Z,13.67
2022-10-28T08:45:05.139Z,13.43
2022-10-28T08:47:47.853Z,13.20
2022-10-28T08:50:18.225Z,12.23
2022-10-28T08:52:50.214Z,12.60
2022-10-28T08:55:21.038Z,12.70
2022-10-28T08:57:52.937Z,14.00
2022-10-28T09:00:23.838Z,15.53
2022-10-28T09:03:01.356Z,12.67
2022-10-28T09:05:29.889Z,11.33
2022-10-28T09:07:59.126Z,13.23
2022-10-28T09:10:36.437Z,12.77
2022-10-28T09:13:09.053Z,12.93
2022-10-28T09:18:19.817Z,12.73
2022-10-28T09:20:52.884Z,14.30
2022-10-28T09:23:24.478Z,13.87
2022-10-28T09:25:58.303Z,13.00
2022-10-28T09:28:33.621Z,15.23
2022-10-28T09:31:06.370Z,14.60
2022-10-28T09:33:44.676Z,16.13
2022-10-28T09:36:14.974Z,15.67
2022-10-28T09:38:44.275Z,15.63
2022-10-28T09:41:15.258Z,14.67
2022-10-28T09:43:47.662Z,15.00
2022-10-28T09:46:17.269Z,15.13
2022-10-28T09:48:48.204Z,16.00
2022-10-28T09:51:26.175Z,15.67
2022-10-28T09:53:56.986Z,15.87
2022-10-28T09:56:25.403Z,15.90
2022-10-28T09:58:54.544Z,15.93
2022-10-28T10:01:23.068Z,17.00
2022-10-28T10:03:53.540Z,16.93
2022-10-28T10:06:24.630Z,17.73
2022-10-28T10:08:53.866Z,18.40
2022-10-28T10:11:27.173Z,17.50
2022-10-28T10:13:56.051Z,19.77
2022-10-28T10:16:28.338Z,19.33
2022-10-28T10:18:59.597Z,21.47
2022-10-28T10:21:42.228Z,21.27
2022-10-28T10:24:23.578Z,20.97
2022-10-28T10:26:52.635Z,23.00
2022-10-28T10:29:21.463Z,23.63
2022-10-28T10:31:50.029Z,23.73
2022-10-28T10:34:25.331Z,22.60
2022-10-28T10:36:56.117Z,23.37
2022-10-28T10:39:26.590Z,23.67
2022-10-28T10:41:56.423Z,24.07
2022-10-28T10:44:33.591Z,24.60
2022-10-28T10:47:20.732Z,23.80
2022-10-28T10:49:52.161Z,23.40
2022-10-28T10:52:22.801Z,25.80
2022-10-28T10:54:59.864Z,25.67
2022-10-28T10:57:28.812Z,24.97
2022-10-28T10:59:58.499Z,25.50
2022-10-28T11:02:28.954Z,24.63
2022-10-28T11:05:00.526Z,23.50
2022-10-28T11:07:30.114Z,25.33
2022-10-28T11:09:58.544Z,26.47
2022-10-28T11:12:28.436Z,26.00
2022-10-28T11:14:57.900Z,24.50
2022-10-28T11:17:27.531Z,23.53
2022-10-28T11:19:57.509Z,23.53
2022-10-28T11:22:41.181Z,25.93
2022-10-28T11:25:24.411Z,25.53
2022-10-28T11:28:03.137Z,26.70
2022-10-28T11:30:35.311Z,25.73
2022-10-28T11:33:28.796Z,24.90
2022-10-28T11:36:01.245Z,24.33
2022-10-28T11:38:40.842Z,26.10
2022-10-28T11:41:25.146Z,27.27
2022-10-28T11:43:55.354Z,24.83
2022-10-28T11:46:30.918Z,24.97
2022-10-28T11:49:03.846Z,24.93
2022-10-28T11:51:37.350Z,27.43
2022-10-28T11:54:23.404Z,26.17
2022-10-28T11:56:57.859Z,26.87
2022-10-28T11:59:43.816Z,24.30
2022-10-28T12:02:21.507Z,25.27
2022-10-28T12:04:54.211Z,24.27
2022-10-28T12:07:46.124Z,24.70
2022-10-28T12:10:21.370Z,23.17
2022-10-28T12:12:55.314Z,25.17
2022-10-28T12:15:28.438Z,23.17
2022-10-28T12:18:00.038Z,24.33
2022-10-28T12:20:31.856Z,24.30
2022-10-28T12:23:02.002Z,24.90
2022-10-28T12:25:31.897Z,23.23
2022-10-28T12:28:03.406Z,23.63
2022-10-28T12:30:33.077Z,22.33
2022-10-28T12:33:05.662Z,22.50
2022-10-28T12:35:36.723Z,20.50
2022-10-28T12:38:10.019Z,19.87
2022-10-28T12:40:41.368Z,21.70
2022-10-28T12:43:12.730Z,22.13
2022-10-28T12:45:42.517Z,23.40
2022-10-28T12:48:15.945Z,22.67
2022-10-28T12:50:48.262Z,21.73
2022-10-28T12:53:30.386Z,22.47
2022-10-28T12:56:00.101Z,20.07
2022-10-28T12:58:32.268Z,20.00
2022-10-28T13:01:02.709Z,19.00
2022-10-28T13:03:31.123Z,18.00
2022-10-28T13:06:08.183Z,18.07
2022-10-28T13:08:54.205Z,16.37
2022-10-28T13:11:40.522Z,18.00
2022-10-28T13:14:15.805Z,17.60
2022-10-28T13:16:53.069Z,18.67
2022-10-28T13:19:29.620Z,19.60
2022-10-28T13:22:18.534Z,19.07
2022-10-28T13:24:53.821Z,19.30
2022-10-28T13:27:23.159Z,19.83
2022-10-28T13:29:54.161Z,18.67
2022-10-28T13:32:34.035Z,18.37
2022-10-28T13:35:12.400Z,18.30
2022-10-28T13:37:41.318Z,17.50
2022-10-28T13:40:22.138Z,18.23
2022-10-28T13:42:51.449Z,18.27
2022-10-28T13:45:39.461Z,18.30
2022-10-28T13:48:25.487Z,17.77
2022-10-28T13:51:15.269Z,16.43
2022-10-28T13:53:55.391Z,14.47
2022-10-28T13:56:38.711Z,14.83
2022-10-28T13:59:08.511Z,15.83
2022-10-28T14:02:01.831Z,15.13
2022-10-28T14:04:41.079Z,15.17
2022-10-28T14:07:22.558Z,15.27
2022-10-28T14:09:54.967Z,14.10
2022-10-28T14:12:26.354Z,15.93
2022-10-28T14:14:57.094Z,15.00
2022-10-28T14:17:27.899Z,14.70
2022-10-28T14:19:56.328Z,14.47
2022-10-28T14:22:33.419Z,14.30
2022-10-28T14:25:02.067Z,13.17
2022-10-28T14:27:42.091Z,14.23
2022-10-28T14:30:20.967Z,13.67
2022-10-28T14:33:05.018Z,13.17
2022-10-28T14:35:39.498Z,12.67
2022-10-28T14:38:20.999Z,12.93
2022-10-28T14:40:52.071Z,13.97
2022-10-28T14:43:40.054Z,13.57
2022-10-28T14:46:15.231Z,13.60
2022-10-28T14:48:46.843Z,14.10
2022-10-28T14:51:16.646Z,13.30
2022-10-28T14:53:47.152Z,12.43
2022-10-28T14:56:20.192Z,12.60
2022-10-28T14:58:48.832Z,11.07
2022-10-28T15:01:25.198Z,13.20
2022-10-28T15:03:54.951Z,12.10
2022-10-28T15:06:27.165Z,12.03
2022-10-28T15:08:57.687Z,11.93
2022-10-28T15:11:26.287Z,10.70
2022-10-28T15:13:54.987Z,11.63
2022-10-28T15:16:24.198Z,12.20
2022-10-28T15:18:53.212Z,11.57
2022-10-28T15:21:22.674Z,12.43
2022-10-28T15:24:01.887Z,12.37
2022-10-28T15:26:30.339Z,12.63
2022-10-28T15:28:59.305Z,12.13
2022-10-28T15:31:27.772Z,12.00
2022-10-28T15:33:56.120Z,12.73
2022-10-28T15:36:25.365Z,12.30
2022-10-28T15:38:54.395Z,11.80
2022-10-28T15:41:49.301Z,11.70
2022-10-28T15:44:29.746Z,11.87
2022-10-28T15:46:58.491Z,10.83
2022-10-28T15:49:34.043Z,10.30
2022-10-28T15:52:20.934Z,10.97
2022-10-28T15:54:56.241Z,11.00
2022-10-28T15:57:25.639Z,10.77
2022-10-28T16:00:08.825Z,10.80
2022-10-28T16:02:45.984Z,9.90
2022-10-28T16:05:29.400Z,9.93
2022-10-28T16:07:57.952Z,10.43
2022-10-28T16:10:26.561Z,10.57
2022-10-28T16:12:54.930Z,10.00
2022-10-28T16:15:23.334Z,9.77
2022-10-28T16:17:53.374Z,10.40
2022-10-28T16:20:23.770Z,10.20
2022-10-28T16:22:52.426Z,10.70
2022-10-28T16:25:21.679Z,10.93
2022-10-28T16:27:50.378Z,15.37
2022-10-28T16:30:19.261Z,15.63
2022-10-28T16:32:49.057Z,14.13
2022-10-28T16:35:19.984Z,14.13
2022-10-28T16:37:53.792Z,13.27
2022-10-28T16:43:16.098Z,11.67
2022-10-28T16:45:44.688Z,11.43
2022-10-28T16:48:13.850Z,11.00
2022-10-28T16:50:45.076Z,11.27
2022-10-28T16:53:14.427Z,11.20
2022-10-28T16:55:42.833Z,10.93
2022-10-28T16:58:11.199Z,11.60
2022-10-28T17:00:40.382Z,12.43
2022-10-28T17:03:08.947Z,10.93
2022-10-28T17:05:37.304Z,11.63
2022-10-28T17:08:09.826Z,13.20
2022-10-28T17:10:39.815Z,13.97
2022-10-28T17:13:08.782Z,11.67
2022-10-28T17:15:37.406Z,10.67
2022-10-28T17:18:05.914Z,11.97
2022-10-28T17:20:34.687Z,12.07
2022-10-28T17:23:03.023Z,10.97
2022-10-28T17:25:32.855Z,11.13
2022-10-28T17:28:01.644Z,12.10
2022-10-28T17:30:30.037Z,13.13
2022-10-28T17:32:58.447Z,13.40
2022-10-28T17:35:27.453Z,13.13
2022-10-28T17:37:57.309Z,13.03
2022-10-28T17:40:25.986Z,12.90
2022-10-28T17:42:59.431Z,13.57
2022-10-28T17:45:27.826Z,14.47
2022-10-28T17:47:56.198Z,14.57
2022-10-28T17:50:24.582Z,15.23
2022-10-28T17:52:54.521Z,15.20
2022-10-28T17:55:23.110Z,15.17
2022-10-28T17:57:51.701Z,16.63
2022-10-28T18:00:21.702Z,16.33
2022-10-28T18:02:50.230Z,16.40
2022-10-28T18:05:18.780Z,15.00
2022-10-28T18:07:47.139Z,15.30
2022-10-28T18:10:16.711Z,15.20
2022-10-28T18:12:45.054Z,15.47
2022-10-28T18:15:13.439Z,13.73
2022-10-28T18:17:43.632Z,12.73
2022-10-28T18:20:12.247Z,13.70
2022-10-28T18:22:40.593Z,13.13
2022-10-28T18:25:09.520Z,14.17
2022-10-28T18:27:38.359Z,14.13
2022-10-28T18:30:07.167Z,14.43
2022-10-28T18:32:35.570Z,14.97
2022-10-28T18:35:05.533Z,13.03
2022-10-28T18:37:33.914Z,14.87
2022-10-28T18:40:02.281Z,17.70
2022-10-28T18:42:31.075Z,15.73
2022-10-28T18:44:59.447Z,14.43
2022-10-28T18:47:27.937Z,14.60
2022-10-28T18:49:56.298Z,14.17
2022-10-28T18:52:26.027Z,13.37
2022-10-28T18:54:54.389Z,14.70
2022-10-28T18:57:22.823Z,13.27
2022-10-28T19:00:20.209Z,13.10
2022-10-28T19:02:42.197Z,13.33
2022-10-28T19:05:14.845Z,14.27
2022-10-28T19:07:44.882Z,13.33
2022-10-28T19:10:13.329Z,15.47
2022-10-28T19:12:45.041Z,15.30
2022-10-28T19:15:16.501Z,14.73
2022-10-28T19:17:44.845Z,14.93
2022-10-28T19:20:13.232Z,13.83
2022-10-28T19:22:41.656Z,13.70
2022-10-28T19:25:11.783Z,14.30
2022-10-28T19:27:40.152Z,16.00
2022-10-28T19:30:12.437Z,15.70
2022-10-28T19:32:42.213Z,20.43
2022-10-28T19:35:11.067Z,17.33
2022-10-28T19:37:39.450Z,15.23
2022-10-28T19:40:08.372Z,15.30
2022-10-28T19:42:38.953Z,14.17
2022-10-28T19:45:08.055Z,13.90
2022-10-28T19:47:36.422Z,13.63
2022-10-28T19:50:04.914Z,13.90
2022-10-28T19:52:33.262Z,14.33
2022-10-28T19:55:01.807Z,13.37
2022-10-28T19:57:30.149Z,12.93
2022-10-28T19:59:59.883Z,12.73
2022-10-28T20:02:28.345Z,12.80
2022-10-28T20:04:57.331Z,12.60
2022-10-28T20:07:25.695Z,13.17
2022-10-28T20:09:54.501Z,12.70
2022-10-28T20:12:22.928Z,13.43
2022-10-28T20:14:51.285Z,12.93
2022-10-28T20:17:21.004Z,12.43
2022-10-28T20:19:49.346Z,12.60
2022-10-28T20:22:18.083Z,12.07
2022-10-28T20:24:46.419Z,10.70
2022-10-28T20:27:14.758Z,11.70
2022-10-28T20:29:43.139Z,11.80
2022-10-28T20:32:11.539Z,11.00
2022-10-28T20:34:41.539Z,12.10
2022-10-28T20:37:09.935Z,12.00
2022-10-28T20:39:38.307Z,11.43
2022-10-28T20:42:06.691Z,10.70
2022-10-28T20:44:35.083Z,9.97
2022-10-28T20:47:03.447Z,10.73
2022-10-28T20:49:31.836Z,11.03
2022-10-28T20:52:01.562Z,11.33
2022-10-28T20:54:29.950Z,11.13
2022-10-28T20:56:58.532Z,11.20
2022-10-28T20:59:26.910Z,11.60
2022-10-28T21:01:55.360Z,10.23
2022-10-28T21:04:24.022Z,10.83
2022-10-28T21:06:52.387Z,9.90
2022-10-28T21:09:22.137Z,9.80
2022-10-28T21:11:50.522Z,10.87
2022-10-28T21:14:18.919Z,9.83
2022-10-28T21:16:47.318Z,10.70
2022-10-28T21:19:15.705Z,10.30
2022-10-28T21:21:44.099Z,9.70
2022-10-28T21:24:12.538Z,9.43
2022-10-28T21:26:42.283Z,10.20
2022-10-28T21:29:10.602Z,9.70
2022-10-28T21:31:38.969Z,9.30
2022-10-28T21:34:08.487Z,9.93
2022-10-28T21:36:37.096Z,9.17
2022-10-28T21:39:05.537Z,8.90
2022-10-28T21:41:33.874Z,10.10
2022-10-28T21:44:06.797Z,9.47
2022-10-28T21:46:35.245Z,8.80
2022-10-28T21:49:03.656Z,9.13
2022-10-28T21:51:32.024Z,9.07
2022-10-28T21:54:00.382Z,8.67
2022-10-28T21:56:28.755Z,8.63
2022-10-28T21:58:57.130Z,8.80
2022-10-28T22:01:27.013Z,8.70
2022-10-28T22:03:56.165Z,7.87
2022-10-28T22:06:24.558Z,8.43
2022-10-28T22:08:54.106Z,8.90
2022-10-28T22:11:23.445Z,8.73
2022-10-28T22:13:57.044Z,9.30
2022-10-28T22:16:26.982Z,8.87
2022-10-28T22:18:55.461Z,9.80
2022-10-28T22:21:25.379Z,8.80
2022-10-28T22:23:53.893Z,9.40
2022-10-28T22:26:23.526Z,10.50
2022-10-28T22:28:52.264Z,9.63
2022-10-28T22:31:21.792Z,9.87
2022-10-28T22:33:52.060Z,9.70
2022-10-28T22:36:21.026Z,8.77
2022-10-28T22:38:49.578Z,9.27
2022-10-28T22:41:18.443Z,8.53
2022-10-28T22:43:47.456Z,8.13
2022-10-28T22:46:17.053Z,7.43
2022-10-28T22:48:45.814Z,7.90
2022-10-28T22:51:15.873Z,6.87
2022-10-28T22:53:44.256Z,7.03
2022-10-28T22:56:15.125Z,6.50
2022-10-28T22:58:43.472Z,7.73
2022-10-28T23:01:12.719Z,7.80
2022-10-28T23:03:42.187Z,9.50
2022-10-28T23:06:11.231Z,9.90
2022-10-28T23:08:41.468Z,8.73
2022-10-28T23:11:10.248Z,9.53
2022-10-28T23:13:39.190Z,8.13
2022-10-28T23:16:08.533Z,9.53
2022-10-28T23:18:37.051Z,8.57
2022-10-28T23:21:05.851Z,8.90
2022-10-28T23:23:34.320Z,9.40
2022-10-28T23:26:04.086Z,8.70
2022-10-28T23:28:32.473Z,8.40
2022-10-28T23:31:01.768Z,8.07
2022-10-28T23:33:30.901Z,7.67
2022-10-28T23:35:59.778Z,8.07
2022-10-28T23:38:28.535Z,7.50
2022-10-28T23:41:00.386Z,7.50
2022-10-28T23:43:30.562Z,7.40
2022-10-28T23:45:59.511Z,7.83
2022-10-28T23:48:28.279Z,7.93
2022-10-28T23:50:57.059Z,8.23
2022-10-28T23:53:25.909Z,7.03
2022-10-28T23:55:54.578Z,7.03
2022-10-28T23:58:23.639Z,7.07
